sensor_id;sensor_type;location;lat;lon;timestamp;P1;durP1;ratioP1;P2;durP2;ratioP2
4084;SDS011;2057;50.858;6.572;2022-12-18T00:00:04;26.47;;;13.87;;
4084;SDS011;2057;50.858;6.572;2022-12-18T00:02:30;35.28;;;15.02;;
4084;SDS011;2057;50.858;6.572;2022-12-18T00:04:56;35.43;;;15.50;;
4084;SDS011;2057;50.858;6.572;2022-12-18T00:07:24;31.88;;;14.45;;
4084;SDS011;2057;50.858;6.572;2022-12-18T00:09:49;35.27;;;14.57;;
4084;SDS011;2057;50.858;6.572;2022-12-18T00:12:14;28.57;;;13.40;;
4084;SDS011;2057;50.858;6.572;2022-12-18T00:14:40;34.63;;;15.07;;
4084;SDS011;2057;50.858;6.572;2022-12-18T00:17:05;36.30;;;16.50;;
4084;SDS011;2057;50.858;6.572;2022-12-18T00:19:30;28.23;;;13.90;;
4084;SDS011;2057;50.858;6.572;2022-12-18T00:21:56;36.40;;;15.00;;
4084;SDS011;2057;50.858;6.572;2022-12-18T00:24:23;29.42;;;14.40;;
4084;SDS011;2057;50.858;6.572;2022-12-18T00:26:48;31.47;;;14.20;;
4084;SDS011;2057;50.858;6.572;2022-12-18T00:29:14;30.30;;;14.63;;
4084;SDS011;2057;50.858;6.572;2022-12-18T00:31:39;30.47;;;14.40;;
4084;SDS011;2057;50.858;6.572;2022-12-18T00:34:05;38.47;;;15.90;;
4084;SDS011;2057;50.858;6.572;2022-12-18T00:36:32;34.33;;;14.30;;
4084;SDS011;2057;50.858;6.572;2022-12-18T00:38:59;27.38;;;13.20;;
4084;SDS011;2057;50.858;6.572;2022-12-18T00:41:29;28.98;;;13.63;;
4084;SDS011;2057;50.858;6.572;2022-12-18T00:44:13;25.25;;;13.75;;
4084;SDS011;2057;50.858;6.572;2022-12-18T00:46:40;29.25;;;12.55;;
4084;SDS011;2057;50.858;6.572;2022-12-18T00:49:07;29.73;;;13.13;;
4084;SDS011;2057;50.858;6.572;2022-12-18T00:51:32;33.10;;;12.80;;
4084;SDS011;2057;50.858;6.572;2022-12-18T00:53:58;27.90;;;12.87;;
4084;SDS011;2057;50.858;6.572;2022-12-18T00:56:23;28.57;;;13.00;;
4084;SDS011;2057;50.858;6.572;2022-12-18T00:58:49;31.43;;;12.43;;
4084;SDS011;2057;50.858;6.572;2022-12-18T01:01:14;28.07;;;14.27;;
4084;SDS011;2057;50.858;6.572;2022-12-18T01:03:40;23.67;;;12.70;;
4084;SDS011;2057;50.858;6.572;2022-12-18T01:06:06;36.73;;;15.70;;
4084;SDS011;2057;50.858;6.572;2022-12-18T01:08:33;32.63;;;12.15;;
4084;SDS011;2057;50.858;6.572;2022-12-18T01:11:00;28.73;;;13.87;;
4084;SDS011;2057;50.858;6.572;2022-12-18T01:13:25;30.23;;;13.95;;
4084;SDS011;2057;50.858;6.572;2022-12-18T01:15:51;39.23;;;13.80;;
4084;SDS011;2057;50.858;6.572;2022-12-18T01:18:16;31.97;;;14.00;;
4084;SDS011;2057;50.858;6.572;2022-12-18T01:20:42;36.57;;;14.67;;
4084;SDS011;2057;50.858;6.572;2022-12-18T01:23:07;30.43;;;13.80;;
4084;SDS011;2057;50.858;6.572;2022-12-18T01:25:32;33.20;;;14.50;;
4084;SDS011;2057;50.858;6.572;2022-12-18T01:28:00;31.70;;;13.80;;
4084;SDS011;2057;50.858;6.572;2022-12-18T01:30:26;28.40;;;13.32;;
4084;SDS011;2057;50.858;6.572;2022-12-18T01:32:52;29.20;;;14.60;;
4084;SDS011;2057;50.858;6.572;2022-12-18T01:35:17;25.23;;;12.50;;
4084;SDS011;2057;50.858;6.572;2022-12-18T01:37:42;42.30;;;14.43;;
4084;SDS011;2057;50.858;6.572;2022-12-18T01:40:08;31.23;;;13.87;;
4084;SDS011;2057;50.858;6.572;2022-12-18T01:42:34;29.85;;;13.82;;
4084;SDS011;2057;50.858;6.572;2022-12-18T01:50:13;30.45;;;15.45;;
4084;SDS011;2057;50.858;6.572;2022-12-18T01:52:43;30.45;;;13.57;;
4084;SDS011;2057;50.858;6.572;2022-12-18T01:55:14;29.73;;;13.52;;
4084;SDS011;2057;50.858;6.572;2022-12-18T01:57:42;29.08;;;13.90;;
4084;SDS011;2057;50.858;6.572;2022-12-18T02:00:10;33.20;;;13.87;;
4084;SDS011;2057;50.858;6.572;2022-12-18T02:02:58;29.40;;;13.35;;
4084;SDS011;2057;50.858;6.572;2022-12-18T02:13:15;27.08;;;12.55;;
4084;SDS011;2057;50.858;6.572;2022-12-18T02:15:49;27.20;;;12.60;;
4084;SDS011;2057;50.858;6.572;2022-12-18T02:18:30;24.65;;;12.60;;
4084;SDS011;2057;50.858;6.572;2022-12-18T02:26:45;35.45;;;13.23;;
4084;SDS011;2057;50.858;6.572;2022-12-18T02:29:18;29.42;;;13.98;;
4084;SDS011;2057;50.858;6.572;2022-12-18T02:31:50;36.40;;;13.77;;
4084;SDS011;2057;50.858;6.572;2022-12-18T02:34:18;25.75;;;12.75;;
4084;SDS011;2057;50.858;6.572;2022-12-18T02:36:44;27.77;;;12.35;;
4084;SDS011;2057;50.858;6.572;2022-12-18T02:39:12;33.22;;;13.63;;
4084;SDS011;2057;50.858;6.572;2022-12-18T02:41:40;25.63;;;13.40;;
4084;SDS011;2057;50.858;6.572;2022-12-18T02:44:07;36.40;;;13.18;;
4084;SDS011;2057;50.858;6.572;2022-12-18T02:56:58;27.23;;;13.30;;
4084;SDS011;2057;50.858;6.572;2022-12-18T02:59:37;22.40;;;12.60;;
4084;SDS011;2057;50.858;6.572;2022-12-18T03:02:17;29.25;;;13.57;;
4084;SDS011;2057;50.858;6.572;2022-12-18T03:07:26;28.42;;;12.50;;
4084;SDS011;2057;50.858;6.572;2022-12-18T03:10:00;36.33;;;13.13;;
4084;SDS011;2057;50.858;6.572;2022-12-18T03:12:34;27.45;;;14.88;;
4084;SDS011;2057;50.858;6.572;2022-12-18T03:17:38;34.13;;;14.35;;
4084;SDS011;2057;50.858;6.572;2022-12-18T03:20:14;35.25;;;13.85;;
4084;SDS011;2057;50.858;6.572;2022-12-18T03:22:43;30.02;;;13.35;;
4084;SDS011;2057;50.858;6.572;2022-12-18T03:25:13;26.08;;;12.55;;
4084;SDS011;2057;50.858;6.572;2022-12-18T03:27:41;29.33;;;12.40;;
4084;SDS011;2057;50.858;6.572;2022-12-18T03:30:13;22.92;;;13.07;;
4084;SDS011;2057;50.858;6.572;2022-12-18T03:32:51;29.23;;;12.18;;
4084;SDS011;2057;50.858;6.572;2022-12-18T03:35:31;31.05;;;14.38;;
4084;SDS011;2057;50.858;6.572;2022-12-18T03:38:00;35.80;;;14.25;;
4084;SDS011;2057;50.858;6.572;2022-12-18T03:40:27;31.90;;;15.30;;
4084;SDS011;2057;50.858;6.572;2022-12-18T03:43:03;30.52;;;13.73;;
4084;SDS011;2057;50.858;6.572;2022-12-18T03:45:37;34.33;;;14.77;;
4084;SDS011;2057;50.858;6.572;2022-12-18T03:48:14;28.58;;;11.90;;
4084;SDS011;2057;50.858;6.572;2022-12-18T03:50:46;40.55;;;15.38;;
4084;SDS011;2057;50.858;6.572;2022-12-18T08:43:05;47.30;;;20.98;;
4084;SDS011;2057;50.858;6.572;2022-12-18T08:45:49;47.97;;;19.80;;
4084;SDS011;2057;50.858;6.572;2022-12-18T08:48:14;33.53;;;16.47;;
4084;SDS011;2057;50.858;6.572;2022-12-18T08:50:39;57.80;;;19.57;;
4084;SDS011;2057;50.858;6.572;2022-12-18T08:55:40;47.70;;;19.13;;
4084;SDS011;2057;50.858;6.572;2022-12-18T08:58:06;41.07;;;20.00;;
4084;SDS011;2057;50.858;6.572;2022-12-18T09:00:32;40.93;;;19.70;;
4084;SDS011;2057;50.858;6.572;2022-12-18T09:05:32;40.90;;;19.98;;
4084;SDS011;2057;50.858;6.572;2022-12-18T09:07:57;49.40;;;20.67;;
4084;SDS011;2057;50.858;6.572;2022-12-18T09:10:23;45.63;;;19.63;;
4084;SDS011;2057;50.858;6.572;2022-12-18T09:15:23;54.95;;;20.90;;
4084;SDS011;2057;50.858;6.572;2022-12-18T09:17:49;46.63;;;20.43;;
4084;SDS011;2057;50.858;6.572;2022-12-18T10:02:12;43.08;;;19.58;;
4084;SDS011;2057;50.858;6.572;2022-12-18T10:04:39;36.85;;;18.92;;
4084;SDS011;2057;50.858;6.572;2022-12-18T10:07:09;53.27;;;20.43;;
4084;SDS011;2057;50.858;6.572;2022-12-18T10:09:46;36.22;;;18.38;;
4084;SDS011;2057;50.858;6.572;2022-12-18T10:14:53;40.85;;;21.10;;
4084;SDS011;2057;50.858;6.572;2022-12-18T10:23:33;45.08;;;18.42;;
4084;SDS011;2057;50.858;6.572;2022-12-18T10:26:08;33.95;;;18.23;;
4084;SDS011;2057;50.858;6.572;2022-12-18T10:28:36;43.10;;;20.38;;
4084;SDS011;2057;50.858;6.572;2022-12-18T10:31:25;41.30;;;20.45;;
4084;SDS011;2057;50.858;6.572;2022-12-18T10:33:50;38.50;;;17.77;;
4084;SDS011;2057;50.858;6.572;2022-12-18T10:36:15;39.23;;;18.43;;
4084;SDS011;2057;50.858;6.572;2022-12-18T10:38:41;35.40;;;18.50;;
4084;SDS011;2057;50.858;6.572;2022-12-18T10:43:45;31.02;;;17.15;;
4084;SDS011;2057;50.858;6.572;2022-12-18T10:46:14;46.03;;;19.90;;
4084;SDS011;2057;50.858;6.572;2022-12-18T10:51:33;34.88;;;18.20;;
4084;SDS011;2057;50.858;6.572;2022-12-18T10:56:27;34.10;;;18.40;;
4084;SDS011;2057;50.858;6.572;2022-12-18T10:59:01;41.00;;;19.23;;
4084;SDS011;2057;50.858;6.572;2022-12-18T11:04:22;43.92;;;20.50;;
4084;SDS011;2057;50.858;6.572;2022-12-18T11:07:03;37.05;;;18.92;;
4084;SDS011;2057;50.858;6.572;2022-12-18T11:09:35;36.92;;;17.90;;
4084;SDS011;2057;50.858;6.572;2022-12-18T11:12:02;33.65;;;18.13;;
4084;SDS011;2057;50.858;6.572;2022-12-18T11:14:50;36.63;;;18.50;;
4084;SDS011;2057;50.858;6.572;2022-12-18T11:17:22;37.55;;;19.83;;
4084;SDS011;2057;50.858;6.572;2022-12-18T11:19:53;35.60;;;18.55;;
4084;SDS011;2057;50.858;6.572;2022-12-18T11:24:55;33.13;;;16.75;;
4084;SDS011;2057;50.858;6.572;2022-12-18T11:27:23;40.22;;;18.30;;
4084;SDS011;2057;50.858;6.572;2022-12-18T11:29:49;41.13;;;20.40;;
4084;SDS011;2057;50.858;6.572;2022-12-18T11:32:24;36.40;;;18.98;;
4084;SDS011;2057;50.858;6.572;2022-12-18T11:34:59;33.08;;;18.00;;
4084;SDS011;2057;50.858;6.572;2022-12-18T11:37:29;36.65;;;18.52;;
4084;SDS011;2057;50.858;6.572;2022-12-18T11:40:06;37.28;;;16.90;;
4084;SDS011;2057;50.858;6.572;2022-12-18T11:42:39;46.30;;;17.83;;
4084;SDS011;2057;50.858;6.572;2022-12-18T11:47:42;39.03;;;18.27;;
4084;SDS011;2057;50.858;6.572;2022-12-18T11:50:19;38.30;;;18.55;;
4084;SDS011;2057;50.858;6.572;2022-12-18T11:52:48;32.22;;;15.40;;
4084;SDS011;2057;50.858;6.572;2022-12-18T11:55:25;41.00;;;18.50;;
4084;SDS011;2057;50.858;6.572;2022-12-18T12:00:44;41.10;;;19.17;;
4084;SDS011;2057;50.858;6.572;2022-12-18T12:03:41;34.63;;;18.92;;
4084;SDS011;2057;50.858;6.572;2022-12-18T12:09:04;47.28;;;20.58;;
4084;SDS011;2057;50.858;6.572;2022-12-18T12:14:24;33.90;;;17.90;;
4084;SDS011;2057;50.858;6.572;2022-12-18T12:20:07;36.15;;;17.88;;
4084;SDS011;2057;50.858;6.572;2022-12-18T12:23:02;36.67;;;16.70;;
4084;SDS011;2057;50.858;6.572;2022-12-18T12:25:32;43.08;;;18.20;;
4084;SDS011;2057;50.858;6.572;2022-12-18T12:30:56;39.10;;;17.30;;
4084;SDS011;2057;50.858;6.572;2022-12-18T12:39:30;37.83;;;19.00;;
4084;SDS011;2057;50.858;6.572;2022-12-18T12:42:00;35.17;;;18.55;;
4084;SDS011;2057;50.858;6.572;2022-12-18T12:44:48;36.28;;;17.70;;
4084;SDS011;2057;50.858;6.572;2022-12-18T12:47:21;39.05;;;17.75;;
4084;SDS011;2057;50.858;6.572;2022-12-18T12:49:52;40.40;;;19.75;;
4084;SDS011;2057;50.858;6.572;2022-12-18T12:52:38;36.63;;;18.08;;
4084;SDS011;2057;50.858;6.572;2022-12-18T12:55:12;32.63;;;16.67;;
4084;SDS011;2057;50.858;6.572;2022-12-18T12:57:45;40.33;;;20.60;;
4084;SDS011;2057;50.858;6.572;2022-12-18T13:00:22;39.08;;;18.08;;
4084;SDS011;2057;50.858;6.572;2022-12-18T13:05:17;41.03;;;19.40;;
4084;SDS011;2057;50.858;6.572;2022-12-18T13:07:55;38.10;;;18.17;;
4084;SDS011;2057;50.858;6.572;2022-12-18T13:18:12;37.60;;;18.67;;
4084;SDS011;2057;50.858;6.572;2022-12-18T13:20:41;37.75;;;20.52;;
4084;SDS011;2057;50.858;6.572;2022-12-18T13:25:52;36.55;;;20.30;;
4084;SDS011;2057;50.858;6.572;2022-12-18T13:28:23;45.88;;;20.98;;
4084;SDS011;2057;50.858;6.572;2022-12-18T13:34:14;35.60;;;19.08;;
4084;SDS011;2057;50.858;6.572;2022-12-18T13:36:43;40.50;;;19.67;;
4084;SDS011;2057;50.858;6.572;2022-12-18T13:41:44;42.47;;;20.10;;
4084;SDS011;2057;50.858;6.572;2022-12-18T13:44:23;39.22;;;20.25;;
4084;SDS011;2057;50.858;6.572;2022-12-18T13:46:49;47.58;;;18.92;;
4084;SDS011;2057;50.858;6.572;2022-12-18T13:51:52;40.33;;;20.55;;
4084;SDS011;2057;50.858;6.572;2022-12-18T13:54:36;42.35;;;21.13;;
4084;SDS011;2057;50.858;6.572;2022-12-18T13:57:05;54.35;;;21.30;;
4084;SDS011;2057;50.858;6.572;2022-12-18T13:59:49;43.53;;;19.30;;
4084;SDS011;2057;50.858;6.572;2022-12-18T14:02:16;37.00;;;19.73;;
4084;SDS011;2057;50.858;6.572;2022-12-18T14:04:45;42.05;;;21.00;;
4084;SDS011;2057;50.858;6.572;2022-12-18T14:07:12;48.90;;;20.92;;
4084;SDS011;2057;50.858;6.572;2022-12-18T14:09:42;50.22;;;19.90;;
4084;SDS011;2057;50.858;6.572;2022-12-18T14:12:14;44.42;;;21.92;;
4084;SDS011;2057;50.858;6.572;2022-12-18T14:15:01;45.70;;;20.85;;
4084;SDS011;2057;50.858;6.572;2022-12-18T14:17:28;44.08;;;22.02;;
4084;SDS011;2057;50.858;6.572;2022-12-18T14:19:53;54.80;;;23.90;;
4084;SDS011;2057;50.858;6.572;2022-12-18T14:22:23;44.27;;;20.50;;
4084;SDS011;2057;50.858;6.572;2022-12-18T14:25:06;47.20;;;22.48;;
4084;SDS011;2057;50.858;6.572;2022-12-18T14:27:36;56.13;;;22.73;;
4084;SDS011;2057;50.858;6.572;2022-12-18T14:30:16;47.15;;;21.83;;
4084;SDS011;2057;50.858;6.572;2022-12-18T14:35:33;50.72;;;22.67;;
4084;SDS011;2057;50.858;6.572;2022-12-18T14:40:43;45.85;;;23.52;;
4084;SDS011;2057;50.858;6.572;2022-12-18T14:43:10;51.08;;;20.63;;
4084;SDS011;2057;50.858;6.572;2022-12-18T14:45:39;49.10;;;23.48;;
4084;SDS011;2057;50.858;6.572;2022-12-18T14:48:17;46.33;;;20.63;;
4084;SDS011;2057;50.858;6.572;2022-12-18T14:51:02;52.45;;;21.88;;
4084;SDS011;2057;50.858;6.572;2022-12-18T14:53:34;47.95;;;23.45;;
4084;SDS011;2057;50.858;6.572;2022-12-18T14:56:00;48.75;;;24.13;;
4084;SDS011;2057;50.858;6.572;2022-12-18T15:01:22;50.17;;;23.90;;
4084;SDS011;2057;50.858;6.572;2022-12-18T15:03:51;49.65;;;23.80;;
4084;SDS011;2057;50.858;6.572;2022-12-18T15:08:53;57.28;;;27.15;;
4084;SDS011;2057;50.858;6.572;2022-12-18T15:11:35;50.70;;;25.57;;
4084;SDS011;2057;50.858;6.572;2022-12-18T15:16:54;59.88;;;25.60;;
4084;SDS011;2057;50.858;6.572;2022-12-18T15:19:26;57.25;;;26.80;;
4084;SDS011;2057;50.858;6.572;2022-12-18T15:22:04;62.35;;;23.17;;
4084;SDS011;2057;50.858;6.572;2022-12-18T15:24:30;48.73;;;23.30;;
4084;SDS011;2057;50.858;6.572;2022-12-18T15:26:57;63.00;;;25.35;;
4084;SDS011;2057;50.858;6.572;2022-12-18T15:29:23;48.80;;;24.60;;
4084;SDS011;2057;50.858;6.572;2022-12-18T15:32:05;55.42;;;25.38;;
4084;SDS011;2057;50.858;6.572;2022-12-18T15:34:45;56.53;;;26.60;;
4084;SDS011;2057;50.858;6.572;2022-12-18T15:37:13;55.70;;;23.33;;
4084;SDS011;2057;50.858;6.572;2022-12-18T15:39:38;58.37;;;25.20;;
4084;SDS011;2057;50.858;6.572;2022-12-18T15:42:08;54.13;;;23.73;;
4084;SDS011;2057;50.858;6.572;2022-12-18T15:44:53;52.50;;;22.88;;
4084;SDS011;2057;50.858;6.572;2022-12-18T15:47:18;52.20;;;25.53;;
4084;SDS011;2057;50.858;6.572;2022-12-18T15:49:44;53.33;;;24.67;;
4084;SDS011;2057;50.858;6.572;2022-12-18T15:52:09;66.70;;;26.80;;
4084;SDS011;2057;50.858;6.572;2022-12-18T15:54:38;56.58;;;24.83;;
4084;SDS011;2057;50.858;6.572;2022-12-18T15:57:22;62.65;;;26.35;;
4084;SDS011;2057;50.858;6.572;2022-12-18T15:59:48;60.67;;;24.97;;
4084;SDS011;2057;50.858;6.572;2022-12-18T16:02:15;58.23;;;26.77;;
4084;SDS011;2057;50.858;6.572;2022-12-18T16:04:42;59.80;;;27.70;;
4084;SDS011;2057;50.858;6.572;2022-12-18T16:07:09;57.70;;;24.33;;
4084;SDS011;2057;50.858;6.572;2022-12-18T16:09:35;55.90;;;24.98;;
4084;SDS011;2057;50.858;6.572;2022-12-18T16:12:01;55.25;;;24.77;;
4084;SDS011;2057;50.858;6.572;2022-12-18T16:14:28;64.63;;;29.97;;
4084;SDS011;2057;50.858;6.572;2022-12-18T16:16:56;58.83;;;26.15;;
4084;SDS011;2057;50.858;6.572;2022-12-18T16:19:23;51.10;;;24.10;;
4084;SDS011;2057;50.858;6.572;2022-12-18T16:21:50;56.73;;;26.10;;
4084;SDS011;2057;50.858;6.572;2022-12-18T16:24:38;54.42;;;28.60;;
4084;SDS011;2057;50.858;6.572;2022-12-18T16:27:02;57.30;;;27.40;;
4084;SDS011;2057;50.858;6.572;2022-12-18T16:29:28;64.57;;;28.20;;
4084;SDS011;2057;50.858;6.572;2022-12-18T16:31:54;68.70;;;27.43;;
4084;SDS011;2057;50.858;6.572;2022-12-18T16:34:28;55.47;;;27.02;;
4084;SDS011;2057;50.858;6.572;2022-12-18T16:36:57;64.60;;;28.85;;
4084;SDS011;2057;50.858;6.572;2022-12-18T16:39:23;59.22;;;25.23;;
4084;SDS011;2057;50.858;6.572;2022-12-18T16:41:50;65.47;;;28.27;;
4084;SDS011;2057;50.858;6.572;2022-12-18T16:44:15;65.77;;;28.73;;
4084;SDS011;2057;50.858;6.572;2022-12-18T16:46:41;58.53;;;27.50;;
4084;SDS011;2057;50.858;6.572;2022-12-18T16:49:13;63.65;;;27.42;;
4084;SDS011;2057;50.858;6.572;2022-12-18T16:51:40;55.58;;;27.13;;
4084;SDS011;2057;50.858;6.572;2022-12-18T16:54:06;52.22;;;24.77;;
4084;SDS011;2057;50.858;6.572;2022-12-18T16:56:31;64.20;;;28.67;;
4084;SDS011;2057;50.858;6.572;2022-12-18T16:58:57;60.93;;;25.60;;
4084;SDS011;2057;50.858;6.572;2022-12-18T17:01:24;61.10;;;26.05;;
4084;SDS011;2057;50.858;6.572;2022-12-18T17:03:54;50.22;;;24.90;;
4084;SDS011;2057;50.858;6.572;2022-12-18T17:06:25;61.47;;;26.90;;
4084;SDS011;2057;50.858;6.572;2022-12-18T17:08:59;64.55;;;26.48;;
4084;SDS011;2057;50.858;6.572;2022-12-18T17:11:26;69.57;;;31.15;;
4084;SDS011;2057;50.858;6.572;2022-12-18T17:13:53;53.65;;;25.95;;
4084;SDS011;2057;50.858;6.572;2022-12-18T17:16:18;61.50;;;25.87;;
4084;SDS011;2057;50.858;6.572;2022-12-18T17:18:44;56.87;;;25.83;;
4084;SDS011;2057;50.858;6.572;2022-12-18T17:21:09;66.63;;;28.27;;
4084;SDS011;2057;50.858;6.572;2022-12-18T17:23:37;68.13;;;28.67;;
4084;SDS011;2057;50.858;6.572;2022-12-18T17:26:02;47.47;;;25.77;;
4084;SDS011;2057;50.858;6.572;2022-12-18T17:28:31;51.72;;;25.38;;
4084;SDS011;2057;50.858;6.572;2022-12-18T17:30:56;55.83;;;25.90;;
4084;SDS011;2057;50.858;6.572;2022-12-18T17:33:22;58.20;;;28.70;;
4084;SDS011;2057;50.858;6.572;2022-12-18T17:35:48;66.60;;;28.80;;
4084;SDS011;2057;50.858;6.572;2022-12-18T17:38:14;67.70;;;28.60;;
4084;SDS011;2057;50.858;6.572;2022-12-18T17:40:39;61.23;;;28.37;;
4084;SDS011;2057;50.858;6.572;2022-12-18T17:43:06;62.33;;;30.23;;
4084;SDS011;2057;50.858;6.572;2022-12-18T17:45:35;60.65;;;26.83;;
4084;SDS011;2057;50.858;6.572;2022-12-18T17:48:02;56.53;;;26.58;;
4084;SDS011;2057;50.858;6.572;2022-12-18T17:50:29;65.75;;;28.05;;
4084;SDS011;2057;50.858;6.572;2022-12-18T17:52:55;61.20;;;27.90;;
4084;SDS011;2057;50.858;6.572;2022-12-18T17:55:21;65.13;;;29.85;;
4084;SDS011;2057;50.858;6.572;2022-12-18T17:57:46;76.63;;;34.00;;
4084;SDS011;2057;50.858;6.572;2022-12-18T18:00:12;57.00;;;27.43;;
4084;SDS011;2057;50.858;6.572;2022-12-18T18:02:38;60.08;;;26.98;;
4084;SDS011;2057;50.858;6.572;2022-12-18T18:05:03;66.20;;;26.60;;
4084;SDS011;2057;50.858;6.572;2022-12-18T18:07:29;79.57;;;30.90;;
4084;SDS011;2057;50.858;6.572;2022-12-18T18:09:54;56.03;;;24.70;;
4084;SDS011;2057;50.858;6.572;2022-12-18T18:12:20;65.97;;;31.70;;
4084;SDS011;2057;50.858;6.572;2022-12-18T18:15:03;66.88;;;30.20;;
4084;SDS011;2057;50.858;6.572;2022-12-18T18:17:29;66.97;;;30.27;;
4084;SDS011;2057;50.858;6.572;2022-12-18T18:19:54;65.20;;;28.43;;
4084;SDS011;2057;50.858;6.572;2022-12-18T18:22:20;68.73;;;27.27;;
4084;SDS011;2057;50.858;6.572;2022-12-18T18:24:45;68.97;;;27.43;;
4084;SDS011;2057;50.858;6.572;2022-12-18T18:27:11;67.57;;;28.70;;
4084;SDS011;2057;50.858;6.572;2022-12-18T18:29:36;60.43;;;27.67;;
4084;SDS011;2057;50.858;6.572;2022-12-18T18:32:01;67.60;;;28.37;;
4084;SDS011;2057;50.858;6.572;2022-12-18T18:34:28;62.57;;;29.80;;
4084;SDS011;2057;50.858;6.572;2022-12-18T18:36:54;72.40;;;31.10;;
4084;SDS011;2057;50.858;6.572;2022-12-18T18:39:20;63.97;;;31.20;;
4084;SDS011;2057;50.858;6.572;2022-12-18T18:41:45;73.30;;;29.30;;
4084;SDS011;2057;50.858;6.572;2022-12-18T18:44:11;72.22;;;29.52;;
4084;SDS011;2057;50.858;6.572;2022-12-18T18:46:37;75.87;;;32.37;;
4084;SDS011;2057;50.858;6.572;2022-12-18T18:49:02;67.97;;;29.63;;
4084;SDS011;2057;50.858;6.572;2022-12-18T18:51:29;63.60;;;29.42;;
4084;SDS011;2057;50.858;6.572;2022-12-18T18:53:55;68.17;;;29.40;;
4084;SDS011;2057;50.858;6.572;2022-12-18T18:56:23;64.47;;;30.45;;
4084;SDS011;2057;50.858;6.572;2022-12-18T18:58:51;68.13;;;31.08;;
4084;SDS011;2057;50.858;6.572;2022-12-18T19:01:19;66.78;;;29.60;;
4084;SDS011;2057;50.858;6.572;2022-12-18T19:03:46;66.53;;;29.00;;
4084;SDS011;2057;50.858;6.572;2022-12-18T19:06:19;69.45;;;30.42;;
4084;SDS011;2057;50.858;6.572;2022-12-18T19:08:47;60.88;;;29.30;;
4084;SDS011;2057;50.858;6.572;2022-12-18T19:11:14;67.57;;;30.42;;
4084;SDS011;2057;50.858;6.572;2022-12-18T19:13:58;56.65;;;28.48;;
4084;SDS011;2057;50.858;6.572;2022-12-18T19:16:25;62.60;;;27.15;;
4084;SDS011;2057;50.858;6.572;2022-12-18T19:18:51;62.17;;;27.35;;
4084;SDS011;2057;50.858;6.572;2022-12-18T19:21:18;58.75;;;27.83;;
4084;SDS011;2057;50.858;6.572;2022-12-18T19:23:44;65.50;;;28.77;;
4084;SDS011;2057;50.858;6.572;2022-12-18T19:26:11;69.53;;;28.95;;
4084;SDS011;2057;50.858;6.572;2022-12-18T19:36:24;57.83;;;25.30;;
4084;SDS011;2057;50.858;6.572;2022-12-18T19:38:55;66.78;;;30.65;;
4084;SDS011;2057;50.858;6.572;2022-12-18T20:17:39;75.07;;;30.95;;
4084;SDS011;2057;50.858;6.572;2022-12-18T20:20:05;54.37;;;25.47;;
4084;SDS011;2057;50.858;6.572;2022-12-18T20:22:31;69.10;;;27.77;;
4084;SDS011;2057;50.858;6.572;2022-12-18T20:27:32;68.95;;;30.40;;
4084;SDS011;2057;50.858;6.572;2022-12-18T20:40:19;67.95;;;30.48;;
4084;SDS011;2057;50.858;6.572;2022-12-18T20:42:44;69.43;;;29.83;;
4084;SDS011;2057;50.858;6.572;2022-12-18T20:45:09;72.87;;;32.40;;
4084;SDS011;2057;50.858;6.572;2022-12-18T20:50:10;63.88;;;27.88;;
4084;SDS011;2057;50.858;6.572;2022-12-18T20:52:36;71.33;;;31.60;;
4084;SDS011;2057;50.858;6.572;2022-12-18T20:55:01;75.10;;;31.10;;
4084;SDS011;2057;50.858;6.572;2022-12-18T20:57:26;68.33;;;29.27;;
4084;SDS011;2057;50.858;6.572;2022-12-18T20:59:52;70.40;;;31.57;;
4084;SDS011;2057;50.858;6.572;2022-12-18T21:04:52;70.55;;;30.80;;
4084;SDS011;2057;50.858;6.572;2022-12-18T21:07:18;73.77;;;31.70;;
4084;SDS011;2057;50.858;6.572;2022-12-18T21:14:51;71.13;;;30.83;;
4084;SDS011;2057;50.858;6.572;2022-12-18T21:17:17;65.70;;;29.27;;
4084;SDS011;2057;50.858;6.572;2022-12-18T21:19:42;71.33;;;31.90;;
4084;SDS011;2057;50.858;6.572;2022-12-18T21:22:08;73.37;;;30.93;;
4084;SDS011;2057;50.858;6.572;2022-12-18T21:24:36;63.35;;;30.02;;
4084;SDS011;2057;50.858;6.572;2022-12-18T21:27:01;75.83;;;32.83;;
4084;SDS011;2057;50.858;6.572;2022-12-18T21:29:27;77.17;;;33.50;;
4084;SDS011;2057;50.858;6.572;2022-12-18T21:31:53;72.97;;;33.97;;
4084;SDS011;2057;50.858;6.572;2022-12-18T21:34:20;71.70;;;31.30;;
4084;SDS011;2057;50.858;6.572;2022-12-18T21:36:50;69.55;;;30.80;;
4084;SDS011;2057;50.858;6.572;2022-12-18T21:39:16;72.23;;;32.93;;
4084;SDS011;2057;50.858;6.572;2022-12-18T21:41:42;70.88;;;31.48;;
4084;SDS011;2057;50.858;6.572;2022-12-18T21:44:26;68.70;;;29.98;;
4084;SDS011;2057;50.858;6.572;2022-12-18T21:46:52;83.87;;;33.47;;
4084;SDS011;2057;50.858;6.572;2022-12-18T21:49:18;64.67;;;31.77;;
4084;SDS011;2057;50.858;6.572;2022-12-18T21:51:45;73.30;;;32.92;;
4084;SDS011;2057;50.858;6.572;2022-12-18T21:54:13;68.90;;;29.60;;
4084;SDS011;2057;50.858;6.572;2022-12-18T21:59:19;74.35;;;31.13;;
4084;SDS011;2057;50.858;6.572;2022-12-18T22:01:47;63.53;;;30.98;;
4084;SDS011;2057;50.858;6.572;2022-12-18T22:04:14;77.35;;;31.13;;
4084;SDS011;2057;50.858;6.572;2022-12-18T22:06:40;72.85;;;32.42;;
4084;SDS011;2057;50.858;6.572;2022-12-18T22:09:07;76.63;;;32.00;;
4084;SDS011;2057;50.858;6.572;2022-12-18T22:11:33;71.47;;;30.95;;
4084;SDS011;2057;50.858;6.572;2022-12-18T22:13:59;67.93;;;29.47;;
4084;SDS011;2057;50.858;6.572;2022-12-18T22:29:19;66.07;;;29.10;;
4084;SDS011;2057;50.858;6.572;2022-12-18T22:32:05;65.82;;;30.42;;
4084;SDS011;2057;50.858;6.572;2022-12-18T22:34:32;81.40;;;33.65;;
4084;SDS011;2057;50.858;6.572;2022-12-18T22:36:58;72.80;;;32.90;;
4084;SDS011;2057;50.858;6.572;2022-12-18T22:39:24;59.70;;;29.47;;
4084;SDS011;2057;50.858;6.572;2022-12-18T22:41:52;76.53;;;31.58;;
4084;SDS011;2057;50.858;6.572;2022-12-18T22:44:18;68.17;;;31.40;;
4084;SDS011;2057;50.858;6.572;2022-12-18T22:46:45;73.55;;;31.00;;
4084;SDS011;2057;50.858;6.572;2022-12-18T22:49:15;66.93;;;32.10;;
4084;SDS011;2057;50.858;6.572;2022-12-18T22:51:42;67.18;;;29.95;;
4084;SDS011;2057;50.858;6.572;2022-12-18T22:54:08;68.57;;;29.13;;
4084;SDS011;2057;50.858;6.572;2022-12-18T22:56:34;62.07;;;27.43;;
4084;SDS011;2057;50.858;6.572;2022-12-18T22:58:59;69.93;;;29.27;;
4084;SDS011;2057;50.858;6.572;2022-12-18T23:01:26;65.07;;;28.80;;
4084;SDS011;2057;50.858;6.572;2022-12-18T23:03:53;65.53;;;30.83;;
4084;SDS011;2057;50.858;6.572;2022-12-18T23:06:19;74.00;;;29.90;;
4084;SDS011;2057;50.858;6.572;2022-12-18T23:08:45;67.80;;;29.92;;
4084;SDS011;2057;50.858;6.572;2022-12-18T23:11:12;64.00;;;29.88;;
4084;SDS011;2057;50.858;6.572;2022-12-18T23:13:38;68.53;;;31.15;;
4084;SDS011;2057;50.858;6.572;2022-12-18T23:16:08;69.43;;;31.67;;
4084;SDS011;2057;50.858;6.572;2022-12-18T23:18:38;63.75;;;28.02;;
4084;SDS011;2057;50.858;6.572;2022-12-18T23:21:09;63.30;;;29.70;;
4084;SDS011;2057;50.858;6.572;2022-12-18T23:23:36;65.60;;;29.75;;
4084;SDS011;2057;50.858;6.572;2022-12-18T23:26:02;66.50;;;30.30;;
4084;SDS011;2057;50.858;6.572;2022-12-18T23:28:33;66.20;;;30.65;;
4084;SDS011;2057;50.858;6.572;2022-12-18T23:31:03;67.18;;;29.73;;
4084;SDS011;2057;50.858;6.572;2022-12-18T23:33:34;62.83;;;30.17;;
4084;SDS011;2057;50.858;6.572;2022-12-18T23:36:00;67.33;;;30.67;;
4084;SDS011;2057;50.858;6.572;2022-12-18T23:38:26;71.15;;;30.35;;
4084;SDS011;2057;50.858;6.572;2022-12-18T23:40:52;70.75;;;31.15;;
4084;SDS011;2057;50.858;6.572;2022-12-18T23:43:17;72.40;;;30.00;;
4084;SDS011;2057;50.858;6.572;2022-12-18T23:45:42;64.40;;;29.03;;
4084;SDS011;2057;50.858;6.572;2022-12-18T23:48:09;60.80;;;28.10;;
4084;SDS011;2057;50.858;6.572;2022-12-18T23:50:34;62.20;;;29.77;;
4084;SDS011;2057;50.858;6.572;2022-12-18T23:53:00;62.73;;;29.20;;
4084;SDS011;2057;50.858;6.572;2022-12-18T23:55:25;63.60;;;28.77;;